Terminal Aerodrome Forecast
Issued by NWS

Home | Current Version | Previous Version | Graphics & Text | Print | Product List | Glossary On
Versions: 1 2 3 4 5 6 7 8 9 10 11 12 13 14 15 16 17 18
000
FTUS43 KMPX 222335
TAFAXN
TAF
KAXN 222335Z 2300/2324 17012KT P6SM FEW040 WS020/20050KT
     FM230500 23010KT P6SM VCTS SCT050CB BKN150
     FM231000 34005KT P6SM VCSH BKN015 OVC040
     FM231500 03006KT P6SM -SHRA OVC015=

USA.gov is the U.S. government's official web portal to all federal, state and local government web resources and services.